Terminal Aerodrome Forecast
Issued by NWS Shreveport, LA

Home | Current Version | Previous Version | Text Only | Print | Product List | Glossary On
Versions: 1 2 3 4 5 6 7 8 9 10 11 12 13 14 15 16 17
000
FTUS44 KSHV 311700
TAFMLU
TAF
KMLU 311720Z 3118/0118 36013G19KT P6SM FEW040
     FM312100 35014G24KT P6SM BKN040
     FM010200 01010KT P6SM SCT040
     FM010600 01005KT P6SM SKC=

USA.gov is the U.S. government's official web portal to all federal, state and local government web resources and services.